Time;durP1;ratioP1;P1;durP2;ratioP2;P2;SDS_P1;SDS_P2;PMS_P1;PMS_P2;Temp;Humidity;BMP_temperature;BMP_pressure;BME280_temperature;BME280_humidity;BME280_pressure;Samples;Min_cycle;Max_cycle;Signal;HPM_P1;HPM_P2
2022/07/19 03:00:28;;;;;;;8.32;5.80;;;17.50;99.90;;;;;;6188297;22;20043;-83
2022/07/19 03:02:54;;;;;;;6.90;5.13;;;17.50;99.90;;;;;;6313720;22;20007;-83
2022/07/19 03:05:19;;;;;;;10.35;6.10;;;17.50;99.90;;;;;;6314712;22;20472;-85
2022/07/19 03:07:45;;;;;;;9.07;6.00;;;17.50;99.90;;;;;;6314457;22;20015;-84
2022/07/19 03:10:11;;;;;;;9.60;5.80;;;17.60;99.90;;;;;;6341859;22;20011;-84
2022/07/19 03:12:36;;;;;;;9.75;5.50;;;17.60;99.90;;;;;;6283340;22;20015;-85
2022/07/19 03:15:03;;;;;;;10.10;5.63;;;17.60;99.90;;;;;;6283025;22;20015;-81
2022/07/19 03:17:29;;;;;;;9.55;5.40;;;17.60;99.90;;;;;;6281416;22;20383;-84
2022/07/19 03:19:54;;;;;;;8.73;5.40;;;17.60;99.90;;;;;;6309710;22;20085;-83
2022/07/19 03:22:20;;;;;;;9.85;5.47;;;17.60;99.90;;;;;;6281692;22;20011;-84
2022/07/19 03:24:46;;;;;;;10.10;5.93;;;17.60;99.90;;;;;;6280666;22;20466;-84
2022/07/19 03:27:11;;;;;;;9.35;5.22;;;17.70;99.90;;;;;;6282710;22;20015;-83
2022/07/19 03:29:37;;;;;;;9.57;5.53;;;17.80;99.90;;;;;;6282446;22;20368;-85
2022/07/19 03:32:03;;;;;;;9.52;5.78;;;17.80;99.90;;;;;;6282906;22;20007;-83
2022/07/19 03:34:29;;;;;;;9.55;5.93;;;17.90;99.90;;;;;;6282836;22;20087;-84
2022/07/19 03:36:55;;;;;;;10.65;5.97;;;17.90;99.90;;;;;;6256998;22;20112;-82
2022/07/19 03:39:21;;;;;;;7.75;5.00;;;17.90;99.90;;;;;;6281350;22;20022;-80
2022/07/19 03:41:47;;;;;;;8.52;5.22;;;17.90;99.90;;;;;;6309368;22;20003;-83
2022/07/19 03:44:13;;;;;;;9.82;5.82;;;17.90;99.90;;;;;;6310267;22;20332;-84
2022/07/19 03:46:38;;;;;;;9.48;5.95;;;18.00;99.90;;;;;;6309847;22;20094;-83
2022/07/19 03:49:04;;;;;;;8.80;5.57;;;18.00;99.90;;;;;;6282586;22;20076;-83
2022/07/19 03:51:30;;;;;;;14.20;5.32;;;18.00;99.90;;;;;;6309624;22;20011;-83
2022/07/19 03:53:56;;;;;;;8.93;5.70;;;18.00;99.90;;;;;;6282426;22;20023;-84
2022/07/19 03:56:22;;;;;;;9.18;5.40;;;18.00;99.90;;;;;;6309418;22;20375;-84
2022/07/19 03:58:48;;;;;;;10.50;5.72;;;17.90;99.90;;;;;;6281654;22;20083;-84
2022/07/19 04:01:15;;;;;;;9.38;5.20;;;17.90;99.90;;;;;;6307910;22;20003;-82
2022/07/19 04:03:41;;;;;;;7.45;5.10;;;17.90;99.90;;;;;;6256205;22;20094;-80
2022/07/19 04:06:09;;;;;;;8.40;5.85;;;17.90;99.90;;;;;;6310555;22;20031;-85
2022/07/19 04:08:35;;;;;;;7.68;5.15;;;17.90;99.90;;;;;;6283018;22;20451;-84
2022/07/19 04:11:01;;;;;;;9.85;5.60;;;17.90;99.90;;;;;;6310747;22;20011;-87
2022/07/19 04:13:27;;;;;;;9.50;5.40;;;17.90;99.90;;;;;;6283079;22;20015;-85
2022/07/19 04:15:53;;;;;;;9.10;5.32;;;18.00;99.90;;;;;;6308499;22;20395;-83
2022/07/19 04:18:19;;;;;;;9.90;5.50;;;18.00;99.90;;;;;;6308136;22;20020;-85
2022/07/19 04:20:44;;;;;;;8.60;5.38;;;18.00;99.90;;;;;;6256684;22;20045;-85
2022/07/19 04:23:10;;;;;;;9.55;5.78;;;18.00;99.90;;;;;;6307439;22;20022;-81
2022/07/19 04:25:36;;;;;;;7.68;5.32;;;18.00;99.90;;;;;;6282827;22;20046;-83
2022/07/19 04:28:02;;;;;;;9.80;5.38;;;18.00;99.90;;;;;;6284358;22;20110;-86
2022/07/19 04:33:04;;;;;;;13.02;6.13;;;18.00;99.90;;;;;;6310776;22;20345;-86
2022/07/19 04:35:30;;;;;;;8.90;5.30;;;18.00;99.90;;;;;;6260332;22;20098;-86
2022/07/19 04:37:55;;;;;;;11.45;5.72;;;18.00;99.90;;;;;;6259739;22;20015;-85
2022/07/19 04:40:24;;;;;;;11.30;5.68;;;18.00;99.90;;;;;;6284972;22;20387;-85
2022/07/19 04:42:50;;;;;;;9.40;5.68;;;18.00;99.90;;;;;;6259379;22;19995;-85
2022/07/19 04:45:16;;;;;;;8.65;5.40;;;18.10;99.90;;;;;;6312806;22;20034;-86
2022/07/19 04:47:41;;;;;;;9.23;5.35;;;18.10;99.90;;;;;;6284874;22;20034;-83
2022/07/19 04:50:08;;;;;;;7.97;5.40;;;18.10;99.90;;;;;;6283573;22;20061;-85
2022/07/19 04:52:33;;;;;;;11.98;5.35;;;18.10;99.90;;;;;;6311783;22;20013;-84
2022/07/19 04:54:59;;;;;;;9.18;5.65;;;18.10;99.90;;;;;;6284828;22;20039;-86
2022/07/19 04:57:24;;;;;;;10.63;5.30;;;18.20;99.90;;;;;;6312289;22;20015;-85
2022/07/19 04:59:50;;;;;;;12.27;5.82;;;18.20;99.90;;;;;;6284819;22;20344;-86
2022/07/19 05:02:16;;;;;;;13.10;6.15;;;18.20;99.90;;;;;;6284987;22;20065;-87
2022/07/19 05:04:41;;;;;;;10.15;5.60;;;18.20;99.90;;;;;;6259394;22;19998;-87
2022/07/19 05:07:07;;;;;;;8.40;5.80;;;18.20;99.90;;;;;;6284527;22;20069;-85
2022/07/19 05:09:33;;;;;;;9.90;5.70;;;18.20;99.90;;;;;;6284158;22;20135;-79
2022/07/19 05:11:58;;;;;;;9.55;5.43;;;18.20;99.90;;;;;;6310534;22;20026;-84
2022/07/19 05:14:24;;;;;;;8.23;5.63;;;18.30;99.90;;;;;;6284201;22;20008;-83
2022/07/19 05:16:50;;;;;;;14.88;5.93;;;18.30;99.90;;;;;;6284576;22;20041;-87
2022/07/19 05:19:17;;;;;;;7.82;5.43;;;18.40;99.90;;;;;;6312711;22;20019;-83
2022/07/19 05:21:43;;;;;;;8.02;5.50;;;18.40;99.90;;;;;;6312434;22;20018;-83
2022/07/19 05:24:09;;;;;;;9.82;5.47;;;18.40;99.90;;;;;;6312284;22;20011;-84
2022/07/19 05:26:35;;;;;;;8.35;5.40;;;18.40;99.90;;;;;;6259239;22;20060;-85
2022/07/19 05:29:02;;;;;;;9.90;5.90;;;18.50;99.90;;;;;;6310769;22;20011;-82
2022/07/19 05:31:28;;;;;;;12.50;5.70;;;18.50;99.90;;;;;;6257074;22;20017;-84
2022/07/19 05:33:53;;;;;;;8.60;5.45;;;18.60;99.90;;;;;;6283009;22;20047;-83
2022/07/19 05:36:19;;;;;;;11.05;5.57;;;18.60;99.90;;;;;;6282868;22;20047;-85
2022/07/19 05:38:45;;;;;;;14.20;6.28;;;18.70;99.90;;;;;;6282611;22;20026;-85
2022/07/19 05:41:10;;;;;;;11.55;6.72;;;18.70;99.90;;;;;;6311182;22;20008;-84
2022/07/19 05:43:38;;;;;;;9.93;5.70;;;18.80;99.90;;;;;;6282957;22;20458;-84
2022/07/19 05:46:04;;;;;;;9.57;5.45;;;18.80;99.90;;;;;;6283200;22;20042;-85
2022/07/19 05:48:30;;;;;;;8.20;5.15;;;18.90;99.90;;;;;;6283405;22;20085;-84
2022/07/19 05:50:57;;;;;;;10.02;5.38;;;18.90;99.90;;;;;;6258665;22;20015;-85
2022/07/19 05:53:22;;;;;;;13.13;5.90;;;19.00;99.90;;;;;;6314064;22;20007;-84
2022/07/19 05:55:48;;;;;;;10.50;6.43;;;19.00;99.90;;;;;;6287785;22;20070;-83
2022/07/19 05:58:14;;;;;;;10.13;6.20;;;19.10;99.90;;;;;;6296106;22;20019;-82
2022/07/19 06:01:17;;;;;;;12.25;5.47;;;19.10;99.90;;;;;;6276614;22;20007;-85
2022/07/19 06:03:25;;;;;;;11.10;5.95;;;19.20;99.90;;;;;;6302208;22;20022;-81
2022/07/19 06:05:51;;;;;;;11.70;5.75;;;19.20;99.90;;;;;;6307200;22;20090;-84
2022/07/19 06:08:16;;;;;;;10.40;5.43;;;19.20;99.90;;;;;;6283033;22;20029;-84
2022/07/19 06:10:42;;;;;;;10.75;5.32;;;19.30;99.90;;;;;;6323499;22;20019;-83
2022/07/19 06:13:08;;;;;;;12.57;5.88;;;19.30;99.90;;;;;;6284420;22;20038;-84
2022/07/19 06:15:33;;;;;;;10.73;5.80;;;19.40;99.90;;;;;;6312796;22;20011;-85
2022/07/19 06:17:59;;;;;;;7.85;5.30;;;19.40;99.90;;;;;;6296244;22;20015;-85
2022/07/19 06:20:24;;;;;;;8.95;5.22;;;19.50;99.90;;;;;;6288479;22;20015;-84
2022/07/19 06:22:53;;;;;;;12.32;5.75;;;19.60;99.90;;;;;;6284856;22;20127;-86
2022/07/19 06:25:19;;;;;;;9.95;5.25;;;19.60;99.90;;;;;;6311771;22;20046;-86
2022/07/19 06:27:45;;;;;;;10.35;5.65;;;19.70;99.90;;;;;;6283899;22;20008;-85
2022/07/19 06:30:11;;;;;;;10.13;5.38;;;19.80;99.90;;;;;;6310964;22;20003;-84
2022/07/19 06:32:36;;;;;;;10.55;5.70;;;19.80;99.90;;;;;;6283225;22;20096;-85
2022/07/19 06:35:02;;;;;;;10.10;5.80;;;19.90;99.90;;;;;;6283110;22;20011;-84
2022/07/19 06:37:28;;;;;;;9.65;5.43;;;19.90;99.90;;;;;;6282745;22;20365;-84
2022/07/19 06:39:54;;;;;;;9.70;4.90;;;20.00;99.90;;;;;;6257630;22;20293;-84
2022/07/19 06:42:19;;;;;;;8.52;5.13;;;20.10;99.90;;;;;;6311205;22;20007;-85
2022/07/19 06:44:45;;;;;;;8.23;5.13;;;20.10;99.90;;;;;;6282778;22;20011;-85
2022/07/19 06:47:11;;;;;;;9.30;5.13;;;20.20;99.90;;;;;;6282607;22;20086;-81
2022/07/19 06:49:36;;;;;;;9.27;5.00;;;20.30;99.90;;;;;;6310236;22;20438;-84
2022/07/19 06:52:02;;;;;;;8.35;5.25;;;20.40;99.90;;;;;;6282882;22;20007;-84
2022/07/19 06:54:28;;;;;;;11.90;5.53;;;20.40;99.90;;;;;;6282946;22;20049;-85
2022/07/19 06:56:54;;;;;;;9.95;4.80;;;20.40;99.90;;;;;;6257674;22;20345;-84
2022/07/19 06:59:20;;;;;;;11.82;4.47;;;20.50;99.90;;;;;;6309944;22;20007;-84
2022/07/19 07:01:46;;;;;;;11.20;4.82;;;20.60;99.90;;;;;;6310154;22;20156;-84
2022/07/19 07:04:11;;;;;;;7.18;4.35;;;20.60;99.90;;;;;;6308315;22;20003;-84
2022/07/19 07:06:37;;;;;;;10.13;4.45;;;20.70;99.90;;;;;;6307721;22;20053;-84
2022/07/19 07:09:04;;;;;;;9.98;4.10;;;20.80;99.90;;;;;;6282376;22;20015;-83
2022/07/19 07:11:29;;;;;;;10.00;4.43;;;20.90;99.90;;;;;;6308339;22;20019;-85
2022/07/19 07:13:56;;;;;;;6.55;3.95;;;21.00;99.90;;;;;;6282605;22;20386;-85
2022/07/19 07:16:21;;;;;;;5.80;4.10;;;21.10;99.90;;;;;;6309973;22;20003;-83
2022/07/19 07:18:47;;;;;;;6.82;3.95;;;21.20;99.90;;;;;;6282679;22;20443;-85
2022/07/19 07:21:15;;;;;;;7.60;3.60;;;21.30;99.90;;;;;;6282796;22;20044;-88
2022/07/19 07:23:41;;;;;;;7.65;3.53;;;21.40;99.90;;;;;;6282885;22;20343;-85
2022/07/19 07:26:07;;;;;;;9.45;4.03;;;21.40;99.90;;;;;;6282836;22;20043;-84
2022/07/19 07:28:32;;;;;;;7.22;3.78;;;21.60;99.90;;;;;;6309778;22;20090;-84
2022/07/19 07:30:58;;;;;;;10.23;3.90;;;21.60;99.90;;;;;;6256404;22;20046;-82
2022/07/19 07:33:24;;;;;;;7.63;3.53;;;21.90;99.90;;;;;;6282191;22;20383;-82
2022/07/19 07:35:50;;;;;;;9.85;3.13;;;22.00;99.90;;;;;;6309488;22;20043;-85
2022/07/19 07:38:15;;;;;;;7.72;3.15;;;22.10;99.90;;;;;;6310319;22;20477;-84
2022/07/19 07:40:41;;;;;;;11.05;3.42;;;22.20;99.90;;;;;;6281866;22;20011;-85
2022/07/19 07:43:07;;;;;;;7.22;3.15;;;22.40;99.90;;;;;;6283449;22;20018;-85
2022/07/19 07:45:33;;;;;;;8.93;3.13;;;22.50;99.90;;;;;;6282642;22;20011;-83
2022/07/19 07:47:59;;;;;;;5.82;3.00;;;22.60;99.90;;;;;;6310407;22;20021;-83
2022/07/19 07:50:28;;;;;;;7.68;3.05;;;22.70;99.90;;;;;;6308924;22;20051;-84
2022/07/19 07:52:53;;;;;;;6.22;3.25;;;22.70;99.90;;;;;;6308163;22;20094;-83
2022/07/19 07:55:19;;;;;;;5.63;2.97;;;22.90;99.90;;;;;;6282346;22;20018;-84
2022/07/19 07:57:45;;;;;;;6.88;2.92;;;23.00;99.90;;;;;;6310462;22;20083;-83
2022/07/19 08:00:12;;;;;;;5.93;2.70;;;23.20;99.90;;;;;;6282765;22;20340;-84
2022/07/19 08:02:43;;;;;;;4.97;2.72;;;23.40;99.90;;;;;;6284203;22;20441;-85
2022/07/19 08:05:09;;;;;;;6.10;2.92;;;23.60;99.90;;;;;;6282771;22;20160;-85
2022/07/19 08:07:36;;;;;;;6.00;3.05;;;23.80;99.90;;;;;;6283319;22;20035;-84
2022/07/19 08:10:05;;;;;;;7.40;3.03;;;23.90;99.90;;;;;;6282792;22;20069;-84
2022/07/19 08:12:31;;;;;;;5.10;2.83;;;24.00;99.90;;;;;;6282288;22;20023;-84
2022/07/19 08:14:56;;;;;;;5.60;2.80;;;24.10;99.90;;;;;;6282388;22;20012;-84
2022/07/19 08:17:22;;;;;;;5.70;2.90;;;24.20;99.90;;;;;;6283729;22;20084;-84
2022/07/19 08:19:48;;;;;;;6.82;2.83;;;24.40;99.90;;;;;;6282500;22;20026;-81
2022/07/19 08:22:18;;;;;;;5.10;2.75;;;24.50;99.90;;;;;;6282677;22;20014;-83
2022/07/19 08:24:44;;;;;;;8.75;2.45;;;24.70;99.90;;;;;;6282297;22;20083;-83
2022/07/19 08:27:10;;;;;;;5.85;2.40;;;24.80;99.90;;;;;;6283225;22;20014;-85
2022/07/19 08:29:36;;;;;;;4.75;2.63;;;24.90;99.90;;;;;;6310386;22;20421;-84
2022/07/19 08:32:02;;;;;;;7.47;2.33;;;25.00;99.90;;;;;;6310611;22;20373;-84
2022/07/19 08:34:27;;;;;;;6.95;2.40;;;25.10;99.90;;;;;;6308639;22;20069;-84
2022/07/19 08:36:53;;;;;;;6.60;2.30;;;25.20;99.90;;;;;;6282704;22;20015;-83
2022/07/19 08:39:19;;;;;;;6.32;2.33;;;25.40;99.90;;;;;;6283237;22;20065;-83
2022/07/19 08:41:46;;;;;;;5.60;2.17;;;25.60;99.90;;;;;;6310039;22;20012;-84
2022/07/19 08:44:12;;;;;;;5.13;2.58;;;25.60;99.90;;;;;;6282538;22;20011;-85
2022/07/19 08:46:40;;;;;;;4.95;2.47;;;25.70;99.90;;;;;;6257031;22;20306;-84
2022/07/19 08:49:07;;;;;;;5.88;2.40;;;25.80;99.90;;;;;;6257975;22;20456;-85
2022/07/19 08:51:33;;;;;;;7.65;2.38;;;25.90;99.90;;;;;;6282844;22;20019;-84
2022/07/19 08:53:59;;;;;;;5.30;2.20;;;26.00;99.90;;;;;;6282005;22;20037;-83
2022/07/19 08:59:09;;;;;;;4.72;2.30;;;26.30;99.90;;;;;;6281946;22;20026;-84
2022/07/19 09:01:36;;;;;;;7.50;2.63;;;26.40;99.90;;;;;;6282329;22;20046;-84
2022/07/19 09:04:14;;;;;;;4.43;2.03;;;26.50;99.90;;;;;;6281963;22;20011;-84
2022/07/19 09:06:44;;;;;;;5.32;2.00;;;26.70;99.90;;;;;;6307794;22;20337;-84
2022/07/19 09:09:12;;;;;;;3.47;1.92;;;26.80;99.90;;;;;;6282086;22;20099;-82
2022/07/19 09:11:48;;;;;;;6.93;2.08;;;27.10;99.90;;;;;;6308705;22;20347;-83
2022/07/19 09:14:15;;;;;;;5.35;2.13;;;27.30;99.90;;;;;;6282224;22;20019;-85
2022/07/19 09:16:50;;;;;;;8.32;2.30;;;27.40;99.90;;;;;;6283639;22;20026;-83
2022/07/19 09:19:17;;;;;;;6.30;1.80;;;27.70;99.90;;;;;;6311090;22;20467;-84
2022/07/19 09:21:54;;;;;;;4.63;1.88;;;27.80;99.90;;;;;;6284353;22;20449;-84
2022/07/19 09:24:21;;;;;;;7.78;2.30;;;28.00;99.90;;;;;;6283629;22;20011;-83
2022/07/19 09:26:55;;;;;;;6.28;1.70;;;28.10;99.90;;;;;;6284349;22;20078;-85
2022/07/19 09:29:21;;;;;;;3.45;1.70;;;28.20;99.90;;;;;;6311713;22;20018;-83
2022/07/19 09:32:10;;;;;;;9.93;2.75;;;28.40;99.90;;;;;;6283386;22;20043;-84
2022/07/19 09:34:39;;;;;;;5.57;1.70;;;28.60;99.90;;;;;;6284064;22;20062;-84
2022/07/19 09:37:27;;;;;;;4.90;1.70;;;28.80;99.90;;;;;;6282977;22;20510;-79
2022/07/19 09:40:01;;;;;;;4.13;1.70;;;28.90;99.90;;;;;;6283009;22;20022;-83
2022/07/19 09:42:41;;;;;;;6.43;1.70;;;29.10;99.50;;;;;;6257591;22;20015;-82
2022/07/19 09:45:13;;;;;;;5.15;1.88;;;29.20;99.90;;;;;;6308577;22;20025;-84
2022/07/19 09:47:41;;;;;;;5.97;2.10;;;29.40;98.60;;;;;;6282424;22;20054;-83
2022/07/19 09:50:14;;;;;;;4.70;1.60;;;29.50;98.40;;;;;;6282958;22;20015;-83
2022/07/19 09:52:40;;;;;;;4.20;1.77;;;29.70;97.60;;;;;;6283425;22;20015;-84
2022/07/19 09:55:08;;;;;;;11.02;1.90;;;29.80;96.30;;;;;;6257595;22;20329;-80
2022/07/19 09:57:38;;;;;;;8.45;1.73;;;30.00;96.20;;;;;;6308707;22;20011;-80
2022/07/19 10:00:05;;;;;;;3.85;1.63;;;30.10;95.70;;;;;;6283001;22;20034;-83
2022/07/19 10:02:35;;;;;;;6.25;1.83;;;30.20;95.10;;;;;;6283056;22;20441;-83
2022/07/19 10:05:02;;;;;;;5.97;1.80;;;30.20;94.60;;;;;;6283030;22;20011;-82
2022/07/19 10:07:28;;;;;;;6.55;1.75;;;30.30;94.20;;;;;;6310416;22;20048;-84
2022/07/19 10:09:55;;;;;;;3.33;1.50;;;30.50;93.10;;;;;;6283047;22;20074;-83
2022/07/19 10:12:22;;;;;;;6.20;1.70;;;30.60;92.20;;;;;;6311110;22;20325;-83
2022/07/19 10:14:48;;;;;;;5.97;1.95;;;30.70;92.00;;;;;;6282486;22;20045;-82
2022/07/19 10:17:28;;;;;;;4.90;1.80;;;30.80;90.90;;;;;;6283055;22;20023;-83
2022/07/19 10:19:55;;;;;;;6.28;1.70;;;30.90;91.00;;;;;;6282500;22;20086;-84
2022/07/19 10:22:24;;;;;;;2.75;1.67;;;31.00;91.30;;;;;;6282457;22;20018;-83
2022/07/19 10:24:55;;;;;;;7.80;2.03;;;31.10;90.60;;;;;;6282368;22;20018;-83
2022/07/19 10:27:24;;;;;;;7.13;1.88;;;31.20;90.40;;;;;;6310685;22;20014;-83
2022/07/19 10:29:50;;;;;;;5.53;1.83;;;31.30;90.60;;;;;;6282711;22;20015;-83
2022/07/19 10:32:16;;;;;;;3.42;1.60;;;31.40;89.50;;;;;;6256803;22;20021;-84
2022/07/19 10:34:46;;;;;;;3.53;1.60;;;31.50;89.10;;;;;;6283072;22;20038;-84
2022/07/19 10:37:12;;;;;;;3.58;1.60;;;31.50;88.20;;;;;;6282658;22;20071;-84
2022/07/19 10:39:39;;;;;;;4.55;1.70;;;31.60;87.50;;;;;;6309932;22;20392;-83
2022/07/19 10:42:08;;;;;;;7.90;1.80;;;31.60;88.70;;;;;;6282574;22;20026;-83
2022/07/19 10:44:34;;;;;;;3.80;1.88;;;31.70;88.50;;;;;;6282719;22;20011;-84
2022/07/19 10:47:00;;;;;;;4.35;1.48;;;31.80;87.00;;;;;;6282556;22;20043;-83
2022/07/19 10:49:42;;;;;;;5.22;1.55;;;31.80;86.80;;;;;;6308160;22;20078;-83
2022/07/19 10:52:44;;;;;;;3.92;1.85;;;32.00;86.00;;;;;;6282943;22;20443;-83
2022/07/19 10:55:16;;;;;;;4.93;1.77;;;32.10;87.30;;;;;;6160584;23;20048;-85
2022/07/19 10:57:43;;;;;;;5.35;2.08;;;32.10;85.00;;;;;;6263979;22;20011;-84
2022/07/19 11:00:29;;;;;;;5.68;2.00;;;32.20;84.20;;;;;;6310761;22;20026;-85
2022/07/19 11:03:25;;;;;;;4.85;1.73;;;32.30;84.20;;;;;;6308574;22;20018;-84
2022/07/19 11:05:55;;;;;;;4.07;1.98;;;32.30;84.90;;;;;;6310029;22;20018;-83
2022/07/19 11:08:42;;;;;;;5.80;1.90;;;32.40;83.70;;;;;;6282461;22;20504;-83
2022/07/19 11:11:09;;;;;;;6.15;2.20;;;32.50;84.40;;;;;;6308247;22;20022;-84
2022/07/19 11:13:37;;;;;;;6.22;2.28;;;32.50;82.10;;;;;;6309967;22;20011;-84
2022/07/19 11:16:03;;;;;;;7.53;1.98;;;32.50;81.80;;;;;;6282527;22;20020;-84
2022/07/19 11:18:30;;;;;;;4.18;1.90;;;32.60;81.80;;;;;;6282244;22;20469;-85
2022/07/19 11:21:05;;;;;;;3.28;1.77;;;32.70;81.50;;;;;;6256525;22;20015;-82
2022/07/19 11:23:33;;;;;;;6.80;1.95;;;32.70;81.00;;;;;;6283132;22;20086;-87
2022/07/19 11:26:25;;;;;;;4.85;2.22;;;32.70;80.60;;;;;;6257509;22;20056;-87
2022/07/19 11:28:51;;;;;;;6.10;2.10;;;32.80;82.70;;;;;;6253190;22;20015;-86
2022/07/19 11:31:27;;;;;;;5.35;1.90;;;32.90;80.90;;;;;;6258486;22;20113;-88
2022/07/19 11:33:56;;;;;;;5.97;2.03;;;33.00;81.10;;;;;;6257699;22;20348;-87
2022/07/19 11:36:23;;;;;;;3.17;1.70;;;33.00;78.50;;;;;;6259722;22;20015;-88
2022/07/19 11:38:52;;;;;;;4.05;1.70;;;33.00;77.20;;;;;;6283755;22;20030;-87
2022/07/19 11:41:26;;;;;;;6.93;2.38;;;33.10;78.20;;;;;;6310634;22;20007;-85
2022/07/19 11:44:00;;;;;;;6.50;1.98;;;33.20;78.90;;;;;;6258507;22;20019;-86
2022/07/19 11:46:28;;;;;;;9.60;1.90;;;33.20;79.10;;;;;;6282761;22;20007;-87
2022/07/19 11:48:59;;;;;;;5.82;1.70;;;33.40;76.40;;;;;;6283293;22;20448;-87
2022/07/19 11:51:25;;;;;;;7.43;2.17;;;33.40;76.40;;;;;;6310806;22;20007;-86
2022/07/19 11:53:53;;;;;;;6.43;2.00;;;33.40;74.90;;;;;;6283017;22;20444;-86
2022/07/19 11:56:22;;;;;;;8.48;1.90;;;33.50;73.50;;;;;;6310956;22;20019;-85
2022/07/19 11:58:50;;;;;;;5.55;1.67;;;33.50;73.60;;;;;;6283142;22;20456;-84
2022/07/19 12:01:25;;;;;;;5.47;1.70;;;33.50;72.40;;;;;;6282775;22;20012;-83
2022/07/19 12:04:01;;;;;;;4.93;1.70;;;33.50;73.30;;;;;;6257550;22;20067;-86
2022/07/19 12:06:43;;;;;;;7.65;1.75;;;33.70;72.80;;;;;;6257552;22;20037;-83
2022/07/19 12:09:11;;;;;;;6.60;1.65;;;33.70;73.50;;;;;;6283292;22;20023;-84
2022/07/19 12:11:44;;;;;;;5.85;1.60;;;33.80;69.90;;;;;;6310142;22;20015;-87
2022/07/19 12:14:29;;;;;;;3.15;1.40;;;33.80;70.30;;;;;;6257415;22;20106;-87
2022/07/19 12:17:14;;;;;;;4.63;1.83;;;33.80;70.40;;;;;;6310728;22;20011;-85
2022/07/19 12:19:43;;;;;;;6.30;1.70;;;33.90;71.10;;;;;;6255766;22;20019;-89
2022/07/19 12:22:40;;;;;;;7.82;1.45;;;34.00;70.50;;;;;;6256157;22;20043;-85
2022/07/19 12:25:11;;;;;;;6.75;1.67;;;34.00;69.20;;;;;;6254402;22;20067;-91
2022/07/19 12:27:37;;;;;;;6.30;1.55;;;34.00;65.40;;;;;;6282284;22;20015;-86
2022/07/19 12:30:05;;;;;;;6.00;1.45;;;34.00;65.80;;;;;;6256371;22;20445;-86
2022/07/19 12:32:32;;;;;;;5.65;1.58;;;34.10;63.30;;;;;;6256316;22;20086;-87
2022/07/19 12:35:02;;;;;;;4.95;1.52;;;34.20;61.80;;;;;;6282635;22;20047;-86
2022/07/19 12:37:36;;;;;;;6.78;1.30;;;34.20;62.20;;;;;;6310053;22;20011;-83
2022/07/19 12:40:06;;;;;;;;;;;34.30;62.30;;;;;;6310130;22;20441;-85
2022/07/19 12:42:41;;;;;;;3.20;1.25;;;34.30;60.80;;;;;;6281850;22;19918;-86
2022/07/19 12:45:09;;;;;;;6.32;1.40;;;34.40;62.10;;;;;;6283616;22;20150;-85
2022/07/19 12:47:35;;;;;;;5.22;1.58;;;34.40;62.20;;;;;;6310150;22;20003;-87
2022/07/19 12:50:01;;;;;;;4.82;1.50;;;34.40;61.30;;;;;;6284692;22;20325;-85
2022/07/19 12:52:27;;;;;;;4.55;1.50;;;34.60;59.30;;;;;;6285399;22;20011;-88
2022/07/19 12:54:52;;;;;;;9.32;1.63;;;34.60;60.50;;;;;;6258792;22;20459;-84
2022/07/19 12:57:18;;;;;;;6.35;1.30;;;34.70;59.90;;;;;;6310453;22;20054;-88
2022/07/19 12:59:44;;;;;;;5.57;1.30;;;34.70;59.20;;;;;;6284171;22;20015;-84
2022/07/19 13:02:13;;;;;;;4.50;1.30;;;34.70;59.10;;;;;;6259057;22;20011;-87
2022/07/19 13:04:40;;;;;;;4.50;1.38;;;34.70;58.70;;;;;;6259358;22;20011;-86
2022/07/19 13:07:07;;;;;;;2.88;1.35;;;34.70;58.20;;;;;;6284556;22;20317;-85
2022/07/19 13:09:35;;;;;;;4.22;1.23;;;34.70;59.80;;;;;;6259139;22;20022;-87
2022/07/19 13:12:06;;;;;;;6.60;1.50;;;34.80;58.80;;;;;;6311573;22;20084;-84
2022/07/19 13:14:32;;;;;;;6.00;1.40;;;34.80;58.30;;;;;;6284542;22;20011;-86
2022/07/19 13:16:58;;;;;;;4.55;1.55;;;34.90;58.10;;;;;;6258680;22;20056;-84
2022/07/19 13:19:25;;;;;;;3.00;1.25;;;34.90;57.30;;;;;;6284308;22;20022;-87
2022/07/19 13:21:54;;;;;;;5.32;1.63;;;34.90;57.60;;;;;;6258828;22;20015;-85
2022/07/19 13:24:23;;;;;;;5.78;1.52;;;35.00;57.70;;;;;;6259048;22;20011;-89
2022/07/19 13:32:09;;;;;;;4.03;1.50;;;35.10;57.90;;;;;;6288744;22;20093;-87
2022/07/19 13:34:36;;;;;;;6.20;2.15;;;35.10;58.00;;;;;;6258362;22;20080;-85
2022/07/19 13:37:18;;;;;;;6.32;1.48;;;35.20;57.50;;;;;;6283621;22;20015;-86
2022/07/19 13:40:41;;;;;;;3.05;1.30;;;35.20;56.70;;;;;;6258018;22;20033;-89
2022/07/19 13:48:06;;;;;;;3.40;1.35;;;35.30;56.60;;;;;;6191258;23;20086;-90
2022/07/19 13:50:55;;;;;;;6.05;1.55;;;35.30;55.60;;;;;;6103109;23;20041;-86
2022/07/19 13:53:21;;;;;;;4.05;1.48;;;35.30;55.70;;;;;;6144582;23;20016;-85
2022/07/19 13:56:35;;;;;;;7.75;1.40;;;35.30;55.40;;;;;;6245747;22;20022;-86
2022/07/19 13:59:24;;;;;;;6.55;1.50;;;35.30;55.50;;;;;;6125592;23;20021;-88
2022/07/19 14:01:50;;;;;;;3.17;1.52;;;35.30;56.40;;;;;;6062227;23;20018;-88
2022/07/19 14:04:31;;;;;;;4.22;1.33;;;35.30;55.60;;;;;;6235752;22;20070;-87
2022/07/19 14:20:47;;;;;;;3.70;1.58;;;35.50;53.40;;;;;;6186988;23;20039;-87
2022/07/19 14:27:16;;;;;;;5.18;1.40;;;35.50;54.90;;;;;;6187642;23;20043;-86
2022/07/19 14:30:22;;;;;;;4.43;1.45;;;35.50;53.10;;;;;;6162109;23;20057;-87
2022/07/19 14:33:36;;;;;;;3.20;1.37;;;35.50;53.50;;;;;;6127227;23;20372;-88
2022/07/19 14:36:05;;;;;;;;;;;35.50;51.20;;;;;;6078542;23;20029;-88
2022/07/19 14:38:39;;;;;;;3.00;1.35;;;35.50;50.90;;;;;;6078481;23;19924;-87
2022/07/19 14:42:16;;;;;;;;;;;;;;;;;;;;;
2022/07/19 14:45:51;;;;;;;4.07;1.65;;;35.60;53.00;;;;;;6182193;23;20017;-87
2022/07/19 14:52:44;;;;;;;;;;;;;;;;;;;;;
2022/07/19 14:56:13;;;;;;;5.43;1.70;;;35.60;51.50;;;;;;6185953;23;20402;-88
2022/07/19 14:59:07;;;;;;;6.22;1.70;;;35.50;51.40;;;;;;6097955;23;20018;-87
2022/07/19 15:01:56;;;;;;;4.28;1.67;;;35.50;50.50;;;;;;6010440;23;20078;-88
2022/07/19 15:04:51;;;;;;;;;;;;;;;;;;;;;
2022/07/19 15:07:26;;;;;;;4.38;1.38;;;35.50;53.20;;;;;;6072598;23;20010;-89
2022/07/19 15:16:59;;;;;;;9.50;1.60;;;35.60;51.00;;;;;;6341854;22;20021;-88
2022/07/19 15:20:51;;;;;;;;;;;;;;;;;;;;;
2022/07/19 15:24:35;;;;;;;4.65;1.58;;;35.60;50.50;;;;;;6215094;23;20043;-83
2022/07/19 15:34:10;;;;;;;6.30;1.60;;;35.60;50.60;;;;;;6334618;22;20027;-87
2022/07/19 15:37:18;;;;;;;;;;;;;;;;;;;;;
2022/07/19 15:39:53;;;;;;;8.05;2.55;;;35.50;50.10;;;;;;6174995;23;20571;-88
2022/07/19 15:42:40;;;;;;;5.13;1.80;;;35.50;50.70;;;;;;6243009;22;20080;-90
2022/07/19 15:45:17;;;;;;;10.00;2.22;;;35.50;50.10;;;;;;6258298;22;20015;-89
2022/07/19 15:48:32;;;;;;;3.75;1.77;;;35.50;50.90;;;;;;6257976;22;20015;-89
2022/07/19 15:50:42;;;;;;;5.25;1.92;;;35.50;49.70;;;;;;6276575;22;20471;-87
2022/07/19 15:53:22;;;;;;;4.55;1.70;;;35.50;49.10;;;;;;6295265;22;20440;-89
2022/07/19 15:55:48;;;;;;;3.03;1.55;;;35.40;48.60;;;;;;6289510;22;20063;-86
2022/07/19 16:02:06;;;;;;;4.25;1.38;;;35.40;49.90;;;;;;6207102;22;20098;-85
2022/07/19 16:04:32;;;;;;;2.72;1.60;;;35.40;50.00;;;;;;6286772;22;20011;-85
2022/07/19 16:06:58;;;;;;;3.55;1.30;;;35.40;48.70;;;;;;6286676;22;20050;-87
2022/07/19 16:09:52;;;;;;;;;;;;;;;;;;;;;
2022/07/19 16:13:16;;;;;;;4.13;1.60;;;35.40;49.60;;;;;;6340038;22;20076;-86
2022/07/19 16:15:36;;;;;;;6.60;1.70;;;35.30;49.40;;;;;;6332042;22;20493;-83
2022/07/19 16:18:03;;;;;;;2.80;1.48;;;35.30;49.60;;;;;;6339870;22;20019;-83
2022/07/19 16:20:29;;;;;;;5.57;1.55;;;35.30;50.80;;;;;;6311886;22;20041;-82
2022/07/19 16:22:55;;;;;;;5.82;1.85;;;35.20;50.20;;;;;;6314170;22;20011;-83
2022/07/19 16:25:21;;;;;;;6.60;2.10;;;35.20;51.60;;;;;;6323016;22;20022;-84
2022/07/19 16:27:47;;;;;;;3.38;1.50;;;35.20;51.50;;;;;;6327510;22;20011;-83
2022/07/19 16:30:13;;;;;;;5.60;1.92;;;35.10;51.90;;;;;;6300962;22;20081;-84
2022/07/19 16:32:40;;;;;;;5.85;1.80;;;35.10;51.50;;;;;;6324139;22;20018;-83
2022/07/19 16:35:06;;;;;;;4.50;1.77;;;35.10;51.30;;;;;;6350509;22;20025;-82
2022/07/19 16:37:35;;;;;;;5.90;1.40;;;35.00;51.70;;;;;;6298412;22;20011;-83
2022/07/19 16:40:03;;;;;;;3.60;1.85;;;35.00;50.80;;;;;;6361253;22;20006;-83
2022/07/19 16:42:28;;;;;;;3.95;1.80;;;34.90;50.80;;;;;;6339236;22;20022;-84
2022/07/19 16:44:54;;;;;;;4.10;1.88;;;34.90;51.10;;;;;;6338600;22;20002;-84
2022/07/19 16:47:19;;;;;;;3.60;1.55;;;34.90;51.80;;;;;;6339939;22;20017;-84
2022/07/19 16:49:46;;;;;;;6.22;1.80;;;34.90;51.40;;;;;;6340081;22;19995;-84
2022/07/19 16:52:12;;;;;;;5.78;1.83;;;34.80;50.90;;;;;;6325504;22;20011;-84
2022/07/19 16:54:37;;;;;;;6.35;1.85;;;34.80;51.60;;;;;;6292338;22;20015;-84
2022/07/19 16:57:03;;;;;;;5.43;1.90;;;34.70;50.80;;;;;;6291254;22;20337;-86
2022/07/19 16:59:29;;;;;;;4.68;1.88;;;34.70;51.20;;;;;;6316836;22;20014;-86
2022/07/19 17:01:55;;;;;;;6.63;2.10;;;34.70;51.60;;;;;;6316312;22;20018;-87
2022/07/19 17:04:22;;;;;;;7.70;2.30;;;34.60;51.50;;;;;;6316624;22;20015;-88
2022/07/19 17:06:51;;;;;;;5.45;2.20;;;34.60;51.90;;;;;;6290864;22;20357;-88